sensor_id;sensor_type;location;lat;lon;timestamp;P1;durP1;ratioP1;P2;durP2;ratioP2
67140;SDS011;54058;52.010;5.546;2023-08-12T00:00:05;4.00;;;2.50;;
67140;SDS011;54058;52.010;5.546;2023-08-12T00:02:38;4.53;;;3.53;;
67140;SDS011;54058;52.010;5.546;2023-08-12T00:05:05;5.57;;;3.67;;
67140;SDS011;54058;52.010;5.546;2023-08-12T00:07:31;7.05;;;3.40;;
67140;SDS011;54058;52.010;5.546;2023-08-12T00:09:57;7.35;;;3.50;;
67140;SDS011;54058;52.010;5.546;2023-08-12T00:12:24;8.57;;;4.18;;
67140;SDS011;54058;52.010;5.546;2023-08-12T00:17:16;5.77;;;3.27;;
67140;SDS011;54058;52.010;5.546;2023-08-12T00:19:42;10.33;;;4.10;;
67140;SDS011;54058;52.010;5.546;2023-08-12T00:22:07;11.03;;;3.97;;
67140;SDS011;54058;52.010;5.546;2023-08-12T00:24:33;5.67;;;3.40;;
67140;SDS011;54058;52.010;5.546;2023-08-12T00:26:58;8.27;;;3.30;;
67140;SDS011;54058;52.010;5.546;2023-08-12T00:29:24;7.03;;;3.47;;
67140;SDS011;54058;52.010;5.546;2023-08-12T00:31:49;6.10;;;3.73;;
67140;SDS011;54058;52.010;5.546;2023-08-12T00:34:16;5.47;;;3.07;;
67140;SDS011;54058;52.010;5.546;2023-08-12T00:39:07;9.10;;;3.50;;
67140;SDS011;54058;52.010;5.546;2023-08-12T00:41:33;11.03;;;4.87;;
67140;SDS011;54058;52.010;5.546;2023-08-12T00:43:59;9.53;;;4.93;;
67140;SDS011;54058;52.010;5.546;2023-08-12T00:46:24;8.40;;;4.40;;
67140;SDS011;54058;52.010;5.546;2023-08-12T00:48:50;8.13;;;4.80;;
67140;SDS011;54058;52.010;5.546;2023-08-12T00:51:16;12.20;;;4.93;;
67140;SDS011;54058;52.010;5.546;2023-08-12T00:53:42;14.98;;;5.53;;
67140;SDS011;54058;52.010;5.546;2023-08-12T00:56:10;9.50;;;5.35;;
67140;SDS011;54058;52.010;5.546;2023-08-12T00:58:36;7.60;;;4.37;;
67140;SDS011;54058;52.010;5.546;2023-08-12T01:01:02;11.52;;;5.72;;
67140;SDS011;54058;52.010;5.546;2023-08-12T01:03:28;11.82;;;5.95;;
67140;SDS011;54058;52.010;5.546;2023-08-12T01:05:55;6.38;;;4.45;;
67140;SDS011;54058;52.010;5.546;2023-08-12T01:08:22;6.13;;;4.40;;
67140;SDS011;54058;52.010;5.546;2023-08-12T01:10:55;9.23;;;4.95;;
67140;SDS011;54058;52.010;5.546;2023-08-12T01:16:14;10.55;;;6.32;;
67140;SDS011;54058;52.010;5.546;2023-08-12T01:18:43;12.82;;;5.80;;
67140;SDS011;54058;52.010;5.546;2023-08-12T01:21:10;9.85;;;6.10;;
67140;SDS011;54058;52.010;5.546;2023-08-12T01:23:40;16.95;;;5.20;;
67140;SDS011;54058;52.010;5.546;2023-08-12T01:26:06;9.02;;;5.43;;
67140;SDS011;54058;52.010;5.546;2023-08-12T01:28:32;13.07;;;5.40;;
67140;SDS011;54058;52.010;5.546;2023-08-12T01:31:00;10.60;;;5.63;;
67140;SDS011;54058;52.010;5.546;2023-08-12T01:33:58;9.15;;;5.43;;
67140;SDS011;54058;52.010;5.546;2023-08-12T01:36:27;9.13;;;5.38;;
67140;SDS011;54058;52.010;5.546;2023-08-12T01:38:55;12.95;;;6.00;;
67140;SDS011;54058;52.010;5.546;2023-08-12T01:41:23;11.65;;;7.30;;
67140;SDS011;54058;52.010;5.546;2023-08-12T01:43:50;8.68;;;4.95;;
67140;SDS011;54058;52.010;5.546;2023-08-12T01:46:15;11.13;;;6.30;;
67140;SDS011;54058;52.010;5.546;2023-08-12T01:48:41;12.33;;;5.83;;
67140;SDS011;54058;52.010;5.546;2023-08-12T01:51:06;10.33;;;5.70;;
67140;SDS011;54058;52.010;5.546;2023-08-12T01:53:32;6.90;;;5.17;;
67140;SDS011;54058;52.010;5.546;2023-08-12T01:55:58;9.17;;;4.83;;
67140;SDS011;54058;52.010;5.546;2023-08-12T01:58:24;8.27;;;5.03;;
67140;SDS011;54058;52.010;5.546;2023-08-12T02:00:51;7.80;;;5.45;;
67140;SDS011;54058;52.010;5.546;2023-08-12T02:03:17;9.38;;;5.72;;
67140;SDS011;54058;52.010;5.546;2023-08-12T02:05:43;10.73;;;5.60;;
67140;SDS011;54058;52.010;5.546;2023-08-12T02:08:08;7.27;;;5.10;;
67140;SDS011;54058;52.010;5.546;2023-08-12T02:10:34;11.97;;;5.33;;
67140;SDS011;54058;52.010;5.546;2023-08-12T02:13:00;14.33;;;6.20;;
67140;SDS011;54058;52.010;5.546;2023-08-12T02:15:26;6.78;;;5.20;;
67140;SDS011;54058;52.010;5.546;2023-08-12T02:17:52;8.67;;;4.80;;
67140;SDS011;54058;52.010;5.546;2023-08-12T02:20:17;7.63;;;4.53;;
67140;SDS011;54058;52.010;5.546;2023-08-12T02:22:43;11.50;;;5.83;;
67140;SDS011;54058;52.010;5.546;2023-08-12T02:25:09;11.13;;;5.97;;
67140;SDS011;54058;52.010;5.546;2023-08-12T02:27:34;9.83;;;5.40;;
67140;SDS011;54058;52.010;5.546;2023-08-12T02:30:00;10.83;;;5.40;;
67140;SDS011;54058;52.010;5.546;2023-08-12T02:32:25;12.13;;;5.43;;
67140;SDS011;54058;52.010;5.546;2023-08-12T02:34:51;17.73;;;7.17;;
67140;SDS011;54058;52.010;5.546;2023-08-12T02:37:17;8.37;;;5.53;;
67140;SDS011;54058;52.010;5.546;2023-08-12T02:39:43;11.40;;;6.33;;
67140;SDS011;54058;52.010;5.546;2023-08-12T02:42:08;9.70;;;5.77;;
67140;SDS011;54058;52.010;5.546;2023-08-12T02:44:34;12.03;;;7.00;;
67140;SDS011;54058;52.010;5.546;2023-08-12T02:47:00;10.80;;;6.57;;
67140;SDS011;54058;52.010;5.546;2023-08-12T02:49:25;10.93;;;6.87;;
67140;SDS011;54058;52.010;5.546;2023-08-12T02:51:51;13.03;;;6.40;;
67140;SDS011;54058;52.010;5.546;2023-08-12T02:54:17;13.90;;;8.07;;
67140;SDS011;54058;52.010;5.546;2023-08-12T02:56:43;10.93;;;6.97;;
67140;SDS011;54058;52.010;5.546;2023-08-12T02:59:09;14.00;;;7.38;;
67140;SDS011;54058;52.010;5.546;2023-08-12T03:01:34;11.90;;;6.60;;
67140;SDS011;54058;52.010;5.546;2023-08-12T03:04:00;10.27;;;6.10;;
67140;SDS011;54058;52.010;5.546;2023-08-12T03:06:25;11.73;;;6.37;;
67140;SDS011;54058;52.010;5.546;2023-08-12T03:08:51;12.93;;;6.27;;
67140;SDS011;54058;52.010;5.546;2023-08-12T03:11:17;14.93;;;7.47;;
67140;SDS011;54058;52.010;5.546;2023-08-12T03:13:43;14.20;;;7.03;;
67140;SDS011;54058;52.010;5.546;2023-08-12T03:16:13;11.95;;;7.65;;
67140;SDS011;54058;52.010;5.546;2023-08-12T03:18:39;10.88;;;6.65;;
67140;SDS011;54058;52.010;5.546;2023-08-12T03:21:08;14.63;;;7.30;;
67140;SDS011;54058;52.010;5.546;2023-08-12T03:23:35;15.88;;;7.18;;
67140;SDS011;54058;52.010;5.546;2023-08-12T03:28:27;12.07;;;7.10;;
67140;SDS011;54058;52.010;5.546;2023-08-12T03:30:53;15.67;;;8.53;;
67140;SDS011;54058;52.010;5.546;2023-08-12T03:33:18;12.83;;;8.33;;
67140;SDS011;54058;52.010;5.546;2023-08-12T03:35:47;13.83;;;9.77;;
67140;SDS011;54058;52.010;5.546;2023-08-12T03:38:14;18.25;;;9.95;;
67140;SDS011;54058;52.010;5.546;2023-08-12T03:40:40;16.65;;;10.80;;
67140;SDS011;54058;52.010;5.546;2023-08-12T03:43:06;17.60;;;10.52;;
67140;SDS011;54058;52.010;5.546;2023-08-12T03:45:32;17.07;;;10.70;;
67140;SDS011;54058;52.010;5.546;2023-08-12T03:48:04;18.58;;;11.40;;
67140;SDS011;54058;52.010;5.546;2023-08-12T03:50:33;17.95;;;11.60;;
67140;SDS011;54058;52.010;5.546;2023-08-12T03:53:02;17.85;;;11.13;;
67140;SDS011;54058;52.010;5.546;2023-08-12T03:55:30;19.23;;;11.03;;
67140;SDS011;54058;52.010;5.546;2023-08-12T03:57:57;18.85;;;10.88;;
67140;SDS011;54058;52.010;5.546;2023-08-12T04:00:23;16.70;;;9.68;;
67140;SDS011;54058;52.010;5.546;2023-08-12T04:02:48;15.50;;;9.30;;
67140;SDS011;54058;52.010;5.546;2023-08-12T04:05:14;22.47;;;12.03;;
67140;SDS011;54058;52.010;5.546;2023-08-12T04:07:40;18.83;;;10.03;;
67140;SDS011;54058;52.010;5.546;2023-08-12T04:10:06;18.13;;;10.60;;
67140;SDS011;54058;52.010;5.546;2023-08-12T04:12:32;16.05;;;10.68;;
67140;SDS011;54058;52.010;5.546;2023-08-12T04:14:57;22.27;;;11.93;;
67140;SDS011;54058;52.010;5.546;2023-08-12T04:17:23;16.83;;;9.30;;
67140;SDS011;54058;52.010;5.546;2023-08-12T04:19:48;23.10;;;11.90;;
67140;SDS011;54058;52.010;5.546;2023-08-12T04:22:14;16.37;;;10.27;;
67140;SDS011;54058;52.010;5.546;2023-08-12T04:24:41;13.27;;;9.52;;
67140;SDS011;54058;52.010;5.546;2023-08-12T04:27:07;14.57;;;9.43;;
67140;SDS011;54058;52.010;5.546;2023-08-12T04:29:33;14.47;;;8.80;;
67140;SDS011;54058;52.010;5.546;2023-08-12T04:31:59;18.15;;;9.90;;
67140;SDS011;54058;52.010;5.546;2023-08-12T04:34:25;11.47;;;8.37;;
67140;SDS011;54058;52.010;5.546;2023-08-12T04:36:50;14.50;;;9.60;;
67140;SDS011;54058;52.010;5.546;2023-08-12T04:39:16;13.33;;;8.20;;
67140;SDS011;54058;52.010;5.546;2023-08-12T04:41:42;20.67;;;9.27;;
67140;SDS011;54058;52.010;5.546;2023-08-12T04:44:07;17.47;;;9.10;;
67140;SDS011;54058;52.010;5.546;2023-08-12T04:46:33;16.63;;;9.87;;
67140;SDS011;54058;52.010;5.546;2023-08-12T04:48:58;17.57;;;9.47;;
67140;SDS011;54058;52.010;5.546;2023-08-12T04:51:24;14.37;;;9.70;;
67140;SDS011;54058;52.010;5.546;2023-08-12T04:53:50;18.10;;;9.93;;
67140;SDS011;54058;52.010;5.546;2023-08-12T04:56:16;16.97;;;9.10;;
67140;SDS011;54058;52.010;5.546;2023-08-12T04:58:41;13.13;;;8.93;;
67140;SDS011;54058;52.010;5.546;2023-08-12T05:01:07;16.43;;;8.47;;
67140;SDS011;54058;52.010;5.546;2023-08-12T05:03:33;21.15;;;9.25;;
67140;SDS011;54058;52.010;5.546;2023-08-12T05:05:59;13.13;;;9.00;;
67140;SDS011;54058;52.010;5.546;2023-08-12T05:08:24;15.27;;;9.50;;
67140;SDS011;54058;52.010;5.546;2023-08-12T05:10:50;12.80;;;7.80;;
67140;SDS011;54058;52.010;5.546;2023-08-12T05:13:16;18.27;;;9.47;;
67140;SDS011;54058;52.010;5.546;2023-08-12T05:15:46;16.25;;;8.15;;
67140;SDS011;54058;52.010;5.546;2023-08-12T05:18:12;16.90;;;7.82;;
67140;SDS011;54058;52.010;5.546;2023-08-12T05:20:39;11.52;;;6.78;;
67140;SDS011;54058;52.010;5.546;2023-08-12T05:23:06;16.48;;;9.18;;
67140;SDS011;54058;52.010;5.546;2023-08-12T05:25:31;12.27;;;8.17;;
67140;SDS011;54058;52.010;5.546;2023-08-12T05:27:57;15.73;;;8.63;;
67140;SDS011;54058;52.010;5.546;2023-08-12T05:30:23;12.73;;;7.80;;
67140;SDS011;54058;52.010;5.546;2023-08-12T05:32:48;9.07;;;6.77;;
67140;SDS011;54058;52.010;5.546;2023-08-12T05:35:14;13.07;;;7.43;;
67140;SDS011;54058;52.010;5.546;2023-08-12T05:37:40;11.70;;;6.30;;
67140;SDS011;54058;52.010;5.546;2023-08-12T05:40:07;11.87;;;6.43;;
67140;SDS011;54058;52.010;5.546;2023-08-12T05:42:34;9.73;;;6.28;;
67140;SDS011;54058;52.010;5.546;2023-08-12T05:45:00;14.45;;;6.85;;
67140;SDS011;54058;52.010;5.546;2023-08-12T05:47:25;18.27;;;7.70;;
67140;SDS011;54058;52.010;5.546;2023-08-12T05:49:51;11.80;;;7.20;;
67140;SDS011;54058;52.010;5.546;2023-08-12T05:52:16;10.47;;;6.93;;
67140;SDS011;54058;52.010;5.546;2023-08-12T05:54:42;11.00;;;6.43;;
67140;SDS011;54058;52.010;5.546;2023-08-12T05:57:08;13.03;;;7.53;;
67140;SDS011;54058;52.010;5.546;2023-08-12T05:59:33;10.53;;;6.57;;
67140;SDS011;54058;52.010;5.546;2023-08-12T06:01:59;11.43;;;6.10;;
67140;SDS011;54058;52.010;5.546;2023-08-12T06:04:24;12.20;;;7.13;;
67140;SDS011;54058;52.010;5.546;2023-08-12T06:06:50;10.53;;;5.83;;
67140;SDS011;54058;52.010;5.546;2023-08-12T06:09:16;11.43;;;6.80;;
67140;SDS011;54058;52.010;5.546;2023-08-12T06:11:41;11.27;;;5.97;;
67140;SDS011;54058;52.010;5.546;2023-08-12T06:14:07;11.00;;;5.40;;
67140;SDS011;54058;52.010;5.546;2023-08-12T06:16:33;12.47;;;5.80;;
67140;SDS011;54058;52.010;5.546;2023-08-12T06:18:59;10.33;;;4.97;;
67140;SDS011;54058;52.010;5.546;2023-08-12T06:21:25;12.63;;;6.22;;
67140;SDS011;54058;52.010;5.546;2023-08-12T06:23:50;15.73;;;6.73;;
67140;SDS011;54058;52.010;5.546;2023-08-12T06:26:16;12.00;;;6.37;;
67140;SDS011;54058;52.010;5.546;2023-08-12T06:28:42;10.90;;;5.77;;
67140;SDS011;54058;52.010;5.546;2023-08-12T06:31:08;9.43;;;5.70;;
67140;SDS011;54058;52.010;5.546;2023-08-12T06:33:34;10.83;;;4.83;;
67140;SDS011;54058;52.010;5.546;2023-08-12T06:35:59;11.57;;;6.43;;
67140;SDS011;54058;52.010;5.546;2023-08-12T06:38:25;13.60;;;7.20;;
67140;SDS011;54058;52.010;5.546;2023-08-12T06:40:50;9.17;;;5.80;;
67140;SDS011;54058;52.010;5.546;2023-08-12T06:43:16;9.97;;;5.23;;
67140;SDS011;54058;52.010;5.546;2023-08-12T06:45:42;8.57;;;5.97;;
67140;SDS011;54058;52.010;5.546;2023-08-12T06:48:07;10.03;;;5.70;;
67140;SDS011;54058;52.010;5.546;2023-08-12T06:50:33;7.33;;;4.70;;
67140;SDS011;54058;52.010;5.546;2023-08-12T06:52:59;6.37;;;4.60;;
67140;SDS011;54058;52.010;5.546;2023-08-12T06:55:24;7.10;;;4.73;;
67140;SDS011;54058;52.010;5.546;2023-08-12T06:57:50;9.27;;;4.63;;
67140;SDS011;54058;52.010;5.546;2023-08-12T07:00:17;6.15;;;4.47;;
67140;SDS011;54058;52.010;5.546;2023-08-12T07:02:42;7.33;;;4.33;;
67140;SDS011;54058;52.010;5.546;2023-08-12T07:05:08;5.77;;;4.40;;
67140;SDS011;54058;52.010;5.546;2023-08-12T07:07:34;5.13;;;3.87;;
67140;SDS011;54058;52.010;5.546;2023-08-12T07:10:00;4.83;;;4.07;;
67140;SDS011;54058;52.010;5.546;2023-08-12T07:12:25;4.93;;;3.73;;
67140;SDS011;54058;52.010;5.546;2023-08-12T07:14:51;5.30;;;4.00;;
67140;SDS011;54058;52.010;5.546;2023-08-12T07:17:17;3.70;;;2.97;;
67140;SDS011;54058;52.010;5.546;2023-08-12T07:19:43;6.33;;;3.80;;
67140;SDS011;54058;52.010;5.546;2023-08-12T07:22:08;5.37;;;3.57;;
67140;SDS011;54058;52.010;5.546;2023-08-12T07:24:34;3.67;;;2.70;;
67140;SDS011;54058;52.010;5.546;2023-08-12T07:27:00;3.60;;;2.63;;
67140;SDS011;54058;52.010;5.546;2023-08-12T07:29:25;3.70;;;2.50;;
67140;SDS011;54058;52.010;5.546;2023-08-12T07:31:51;3.70;;;2.50;;
67140;SDS011;54058;52.010;5.546;2023-08-12T07:34:17;3.28;;;2.30;;
67140;SDS011;54058;52.010;5.546;2023-08-12T07:36:43;3.70;;;2.37;;
67140;SDS011;54058;52.010;5.546;2023-08-12T07:39:09;4.53;;;2.87;;
67140;SDS011;54058;52.010;5.546;2023-08-12T07:41:34;5.23;;;2.67;;
67140;SDS011;54058;52.010;5.546;2023-08-12T07:44:00;4.47;;;2.73;;
67140;SDS011;54058;52.010;5.546;2023-08-12T07:46:27;4.13;;;2.47;;
67140;SDS011;54058;52.010;5.546;2023-08-12T07:48:53;2.92;;;2.30;;
67140;SDS011;54058;52.010;5.546;2023-08-12T07:51:19;2.90;;;2.23;;
67140;SDS011;54058;52.010;5.546;2023-08-12T07:53:44;3.67;;;2.27;;
67140;SDS011;54058;52.010;5.546;2023-08-12T07:56:10;2.30;;;2.10;;
67140;SDS011;54058;52.010;5.546;2023-08-12T07:58:35;2.93;;;2.10;;
67140;SDS011;54058;52.010;5.546;2023-08-12T08:01:01;2.30;;;1.87;;
67140;SDS011;54058;52.010;5.546;2023-08-12T08:03:27;3.27;;;1.80;;
67140;SDS011;54058;52.010;5.546;2023-08-12T08:05:52;1.87;;;1.60;;
67140;SDS011;54058;52.010;5.546;2023-08-12T08:08:18;1.80;;;1.70;;
67140;SDS011;54058;52.010;5.546;2023-08-12T08:10:45;1.67;;;1.58;;
67140;SDS011;54058;52.010;5.546;2023-08-12T08:13:10;3.27;;;1.77;;
67140;SDS011;54058;52.010;5.546;2023-08-12T08:15:36;6.53;;;1.60;;
67140;SDS011;54058;52.010;5.546;2023-08-12T08:18:02;1.50;;;1.10;;
67140;SDS011;54058;52.010;5.546;2023-08-12T08:20:29;1.52;;;1.42;;
67140;SDS011;54058;52.010;5.546;2023-08-12T08:22:55;1.35;;;1.00;;
67140;SDS011;54058;52.010;5.546;2023-08-12T08:25:21;1.20;;;1.10;;
67140;SDS011;54058;52.010;5.546;2023-08-12T08:27:47;3.17;;;1.40;;
67140;SDS011;54058;52.010;5.546;2023-08-12T08:30:13;1.50;;;1.10;;
67140;SDS011;54058;52.010;5.546;2023-08-12T08:32:39;1.70;;;1.05;;
67140;SDS011;54058;52.010;5.546;2023-08-12T08:35:05;5.10;;;1.00;;
67140;SDS011;54058;52.010;5.546;2023-08-12T08:37:31;2.78;;;0.80;;
67140;SDS011;54058;52.010;5.546;2023-08-12T08:39:57;0.90;;;0.90;;
67140;SDS011;54058;52.010;5.546;2023-08-12T08:42:22;1.23;;;0.93;;
67140;SDS011;54058;52.010;5.546;2023-08-12T08:44:50;1.48;;;0.80;;
67140;SDS011;54058;52.010;5.546;2023-08-12T08:47:23;0.93;;;0.65;;
67140;SDS011;54058;52.010;5.546;2023-08-12T08:49:52;2.13;;;0.82;;
67140;SDS011;54058;52.010;5.546;2023-08-12T08:52:20;0.77;;;0.77;;
67140;SDS011;54058;52.010;5.546;2023-08-12T08:54:48;3.42;;;0.73;;
67140;SDS011;54058;52.010;5.546;2023-08-12T08:57:14;0.70;;;0.70;;
67140;SDS011;54058;52.010;5.546;2023-08-12T08:59:40;1.03;;;0.53;;
67140;SDS011;54058;52.010;5.546;2023-08-12T09:02:06;2.03;;;0.60;;
67140;SDS011;54058;52.010;5.546;2023-08-12T09:04:38;0.57;;;0.57;;
67140;SDS011;54058;52.010;5.546;2023-08-12T09:07:05;0.63;;;0.63;;
67140;SDS011;54058;52.010;5.546;2023-08-12T09:09:30;0.40;;;0.40;;
67140;SDS011;54058;52.010;5.546;2023-08-12T09:11:57;0.55;;;0.50;;
67140;SDS011;54058;52.010;5.546;2023-08-12T09:14:23;0.60;;;0.60;;
67140;SDS011;54058;52.010;5.546;2023-08-12T09:16:49;0.63;;;0.63;;
67140;SDS011;54058;52.010;5.546;2023-08-12T09:19:14;0.60;;;0.60;;
67140;SDS011;54058;52.010;5.546;2023-08-12T09:21:40;0.53;;;0.50;;
67140;SDS011;54058;52.010;5.546;2023-08-12T09:26:33;0.77;;;0.60;;
67140;SDS011;54058;52.010;5.546;2023-08-12T09:28:59;0.45;;;0.45;;
67140;SDS011;54058;52.010;5.546;2023-08-12T09:31:29;0.43;;;0.43;;
67140;SDS011;54058;52.010;5.546;2023-08-12T09:34:03;0.68;;;0.60;;
67140;SDS011;54058;52.010;5.546;2023-08-12T09:36:33;0.60;;;0.60;;
67140;SDS011;54058;52.010;5.546;2023-08-12T09:38:59;0.97;;;0.70;;
67140;SDS011;54058;52.010;5.546;2023-08-12T09:41:28;0.70;;;0.70;;
67140;SDS011;54058;52.010;5.546;2023-08-12T09:43:54;2.40;;;1.30;;
67140;SDS011;54058;52.010;5.546;2023-08-12T09:46:22;1.77;;;1.00;;
67140;SDS011;54058;52.010;5.546;2023-08-12T09:48:51;1.30;;;1.08;;
67140;SDS011;54058;52.010;5.546;2023-08-12T09:51:20;5.03;;;1.10;;
67140;SDS011;54058;52.010;5.546;2023-08-12T09:53:49;1.48;;;1.25;;
67140;SDS011;54058;52.010;5.546;2023-08-12T09:56:18;1.92;;;1.20;;
67140;SDS011;54058;52.010;5.546;2023-08-12T09:58:47;1.20;;;1.10;;
67140;SDS011;54058;52.010;5.546;2023-08-12T10:01:13;2.40;;;1.10;;
67140;SDS011;54058;52.010;5.546;2023-08-12T10:03:43;1.88;;;1.13;;
67140;SDS011;54058;52.010;5.546;2023-08-12T10:06:14;3.40;;;1.30;;
67140;SDS011;54058;52.010;5.546;2023-08-12T10:08:40;5.53;;;1.20;;
67140;SDS011;54058;52.010;5.546;2023-08-12T10:11:06;1.73;;;1.05;;
67140;SDS011;54058;52.010;5.546;2023-08-12T10:13:33;3.13;;;1.13;;
67140;SDS011;54058;52.010;5.546;2023-08-12T10:15:59;3.03;;;1.23;;
67140;SDS011;54058;52.010;5.546;2023-08-12T10:18:25;3.42;;;1.33;;
67140;SDS011;54058;52.010;5.546;2023-08-12T10:20:53;5.05;;;1.70;;
67140;SDS011;54058;52.010;5.546;2023-08-12T10:23:22;5.57;;;1.52;;
67140;SDS011;54058;52.010;5.546;2023-08-12T10:25:50;3.58;;;1.30;;
67140;SDS011;54058;52.010;5.546;2023-08-12T10:28:19;5.38;;;1.30;;
67140;SDS011;54058;52.010;5.546;2023-08-12T10:30:45;4.78;;;1.58;;
67140;SDS011;54058;52.010;5.546;2023-08-12T10:33:13;2.95;;;1.45;;
67140;SDS011;54058;52.010;5.546;2023-08-12T10:35:45;4.63;;;1.45;;
67140;SDS011;54058;52.010;5.546;2023-08-12T10:38:19;3.40;;;1.25;;
67140;SDS011;54058;52.010;5.546;2023-08-12T10:40:45;3.15;;;1.10;;
67140;SDS011;54058;52.010;5.546;2023-08-12T10:43:12;4.07;;;1.60;;
67140;SDS011;54058;52.010;5.546;2023-08-12T10:45:42;4.05;;;1.88;;
67140;SDS011;54058;52.010;5.546;2023-08-12T10:48:18;6.13;;;1.30;;
67140;SDS011;54058;52.010;5.546;2023-08-12T10:50:54;7.30;;;1.63;;
67140;SDS011;54058;52.010;5.546;2023-08-12T10:53:27;4.60;;;1.30;;
67140;SDS011;54058;52.010;5.546;2023-08-12T10:56:04;4.22;;;1.48;;
67140;SDS011;54058;52.010;5.546;2023-08-12T10:58:34;3.90;;;1.30;;
67140;SDS011;54058;52.010;5.546;2023-08-12T11:01:11;4.10;;;1.40;;
67140;SDS011;54058;52.010;5.546;2023-08-12T11:03:42;5.35;;;1.30;;
67140;SDS011;54058;52.010;5.546;2023-08-12T11:06:09;5.47;;;1.67;;
67140;SDS011;54058;52.010;5.546;2023-08-12T11:08:35;3.08;;;1.17;;
67140;SDS011;54058;52.010;5.546;2023-08-12T11:11:01;3.73;;;1.07;;
67140;SDS011;54058;52.010;5.546;2023-08-12T11:13:27;1.77;;;0.98;;
67140;SDS011;54058;52.010;5.546;2023-08-12T11:15:54;6.07;;;1.40;;
67140;SDS011;54058;52.010;5.546;2023-08-12T11:18:34;7.78;;;1.60;;
67140;SDS011;54058;52.010;5.546;2023-08-12T11:21:00;4.13;;;1.50;;
67140;SDS011;54058;52.010;5.546;2023-08-12T11:23:26;5.63;;;1.60;;
67140;SDS011;54058;52.010;5.546;2023-08-12T11:25:53;5.47;;;2.05;;
67140;SDS011;54058;52.010;5.546;2023-08-12T11:28:19;4.47;;;1.27;;
67140;SDS011;54058;52.010;5.546;2023-08-12T11:30:47;3.97;;;1.52;;
67140;SDS011;54058;52.010;5.546;2023-08-12T11:33:15;6.17;;;1.70;;
67140;SDS011;54058;52.010;5.546;2023-08-12T11:35:43;2.47;;;1.30;;
67140;SDS011;54058;52.010;5.546;2023-08-12T11:38:09;6.23;;;1.73;;
67140;SDS011;54058;52.010;5.546;2023-08-12T11:40:34;8.37;;;1.70;;
67140;SDS011;54058;52.010;5.546;2023-08-12T11:43:01;4.67;;;1.40;;
67140;SDS011;54058;52.010;5.546;2023-08-12T11:45:28;3.45;;;1.33;;
67140;SDS011;54058;52.010;5.546;2023-08-12T11:47:53;6.47;;;1.97;;
67140;SDS011;54058;52.010;5.546;2023-08-12T11:50:20;6.30;;;1.53;;
67140;SDS011;54058;52.010;5.546;2023-08-12T11:52:47;4.38;;;1.40;;
67140;SDS011;54058;52.010;5.546;2023-08-12T11:55:14;5.85;;;1.73;;
67140;SDS011;54058;52.010;5.546;2023-08-12T12:00:07;2.30;;;1.08;;
67140;SDS011;54058;52.010;5.546;2023-08-12T12:02:46;4.25;;;1.55;;
67140;SDS011;54058;52.010;5.546;2023-08-12T12:05:14;4.47;;;1.50;;
67140;SDS011;54058;52.010;5.546;2023-08-12T12:07:41;8.35;;;1.88;;
67140;SDS011;54058;52.010;5.546;2023-08-12T12:10:07;4.82;;;1.70;;
67140;SDS011;54058;52.010;5.546;2023-08-12T12:12:36;7.43;;;2.15;;
67140;SDS011;54058;52.010;5.546;2023-08-12T12:15:02;5.30;;;1.77;;
67140;SDS011;54058;52.010;5.546;2023-08-12T12:19:57;7.55;;;2.10;;
67140;SDS011;54058;52.010;5.546;2023-08-12T12:22:31;5.28;;;1.77;;
67140;SDS011;54058;52.010;5.546;2023-08-12T12:25:05;5.22;;;1.30;;
67140;SDS011;54058;52.010;5.546;2023-08-12T12:27:39;8.88;;;2.00;;
67140;SDS011;54058;52.010;5.546;2023-08-12T12:30:09;7.82;;;1.92;;
67140;SDS011;54058;52.010;5.546;2023-08-12T12:32:36;5.88;;;1.75;;
67140;SDS011;54058;52.010;5.546;2023-08-12T12:35:02;9.02;;;2.85;;
67140;SDS011;54058;52.010;5.546;2023-08-12T12:37:32;6.70;;;2.50;;
67140;SDS011;54058;52.010;5.546;2023-08-12T12:39:57;8.70;;;1.97;;
67140;SDS011;54058;52.010;5.546;2023-08-12T12:42:23;5.33;;;1.70;;
67140;SDS011;54058;52.010;5.546;2023-08-12T12:44:49;6.97;;;2.03;;
67140;SDS011;54058;52.010;5.546;2023-08-12T12:47:15;8.18;;;1.98;;
67140;SDS011;54058;52.010;5.546;2023-08-12T12:49:41;7.80;;;2.20;;
67140;SDS011;54058;52.010;5.546;2023-08-12T12:52:06;8.97;;;1.80;;
67140;SDS011;54058;52.010;5.546;2023-08-12T12:54:32;7.53;;;2.03;;
67140;SDS011;54058;52.010;5.546;2023-08-12T12:56:58;9.23;;;1.52;;
67140;SDS011;54058;52.010;5.546;2023-08-12T12:59:24;7.80;;;1.70;;
67140;SDS011;54058;52.010;5.546;2023-08-12T13:01:49;7.13;;;1.60;;
67140;SDS011;54058;52.010;5.546;2023-08-12T13:04:15;5.73;;;1.60;;
67140;SDS011;54058;52.010;5.546;2023-08-12T13:06:41;9.03;;;1.70;;
67140;SDS011;54058;52.010;5.546;2023-08-12T13:09:07;9.65;;;2.00;;
67140;SDS011;54058;52.010;5.546;2023-08-12T13:11:33;6.27;;;1.50;;
67140;SDS011;54058;52.010;5.546;2023-08-12T13:14:04;5.43;;;1.70;;
67140;SDS011;54058;52.010;5.546;2023-08-12T13:16:30;8.80;;;2.17;;
67140;SDS011;54058;52.010;5.546;2023-08-12T13:18:56;5.50;;;1.50;;
67140;SDS011;54058;52.010;5.546;2023-08-12T13:21:25;4.70;;;1.65;;
67140;SDS011;54058;52.010;5.546;2023-08-12T13:23:51;7.97;;;1.85;;
67140;SDS011;54058;52.010;5.546;2023-08-12T13:26:17;6.17;;;1.80;;
67140;SDS011;54058;52.010;5.546;2023-08-12T13:28:43;4.70;;;1.48;;
67140;SDS011;54058;52.010;5.546;2023-08-12T13:31:09;5.83;;;1.83;;
67140;SDS011;54058;52.010;5.546;2023-08-12T13:33:34;6.77;;;2.00;;
67140;SDS011;54058;52.010;5.546;2023-08-12T13:36:00;4.70;;;1.57;;
67140;SDS011;54058;52.010;5.546;2023-08-12T13:38:26;7.67;;;1.90;;
67140;SDS011;54058;52.010;5.546;2023-08-12T13:40:52;7.47;;;2.27;;
67140;SDS011;54058;52.010;5.546;2023-08-12T13:43:17;8.20;;;1.83;;
67140;SDS011;54058;52.010;5.546;2023-08-12T13:45:43;9.67;;;2.00;;
67140;SDS011;54058;52.010;5.546;2023-08-12T13:48:08;11.03;;;1.83;;
67140;SDS011;54058;52.010;5.546;2023-08-12T13:50:34;5.23;;;1.83;;
67140;SDS011;54058;52.010;5.546;2023-08-12T13:53:01;7.55;;;1.88;;
67140;SDS011;54058;52.010;5.546;2023-08-12T13:55:27;5.38;;;1.90;;
67140;SDS011;54058;52.010;5.546;2023-08-12T13:57:53;5.70;;;1.70;;
67140;SDS011;54058;52.010;5.546;2023-08-12T14:00:19;8.10;;;2.20;;
67140;SDS011;54058;52.010;5.546;2023-08-12T14:02:44;10.77;;;2.40;;
67140;SDS011;54058;52.010;5.546;2023-08-12T14:05:12;4.32;;;1.55;;
67140;SDS011;54058;52.010;5.546;2023-08-12T14:07:38;10.20;;;2.10;;
67140;SDS011;54058;52.010;5.546;2023-08-12T14:10:04;8.73;;;2.50;;
67140;SDS011;54058;52.010;5.546;2023-08-12T14:14:56;7.30;;;2.10;;
67140;SDS011;54058;52.010;5.546;2023-08-12T14:17:22;6.82;;;2.15;;
67140;SDS011;54058;52.010;5.546;2023-08-12T14:19:48;7.18;;;2.33;;
67140;SDS011;54058;52.010;5.546;2023-08-12T14:22:21;11.80;;;1.73;;
67140;SDS011;54058;52.010;5.546;2023-08-12T14:24:46;7.93;;;1.93;;
67140;SDS011;54058;52.010;5.546;2023-08-12T14:27:13;6.18;;;1.65;;
67140;SDS011;54058;52.010;5.546;2023-08-12T14:29:43;6.05;;;1.70;;
67140;SDS011;54058;52.010;5.546;2023-08-12T14:32:09;9.07;;;1.88;;
67140;SDS011;54058;52.010;5.546;2023-08-12T14:34:35;4.17;;;1.40;;
67140;SDS011;54058;52.010;5.546;2023-08-12T14:37:02;6.95;;;1.73;;
67140;SDS011;54058;52.010;5.546;2023-08-12T14:39:28;7.70;;;1.98;;
67140;SDS011;54058;52.010;5.546;2023-08-12T14:41:53;6.30;;;1.90;;
67140;SDS011;54058;52.010;5.546;2023-08-12T14:44:19;7.73;;;2.20;;
67140;SDS011;54058;52.010;5.546;2023-08-12T14:46:44;8.50;;;1.90;;
67140;SDS011;54058;52.010;5.546;2023-08-12T14:49:10;6.57;;;1.80;;
67140;SDS011;54058;52.010;5.546;2023-08-12T14:51:36;8.53;;;1.70;;
67140;SDS011;54058;52.010;5.546;2023-08-12T14:54:02;6.93;;;1.60;;
67140;SDS011;54058;52.010;5.546;2023-08-12T14:56:27;10.37;;;1.60;;
67140;SDS011;54058;52.010;5.546;2023-08-12T14:58:53;8.67;;;1.87;;